Time;durP1;ratioP1;P1;durP2;ratioP2;P2;SDS_P1;SDS_P2;PMS_P1;PMS_P2;Temp;Humidity;BMP_temperature;BMP_pressure;BME280_temperature;BME280_humidity;BME280_pressure;Samples;Min_cycle;Max_cycle;Signal;HPM_P1;HPM_P2
2022/04/02 00:00:55;;;;;;;20.10;15.70;;;0.80;99.90;;;;;;5073673;28;20178;-72
2022/04/02 00:03:21;;;;;;;20.80;16.90;;;0.80;99.90;;;;;;5064793;28;20176;-72
2022/04/02 00:05:47;;;;;;;17.80;15.23;;;0.80;99.90;;;;;;5073523;28;20358;-72
2022/04/02 00:08:13;;;;;;;18.37;16.47;;;0.80;99.90;;;;;;5073841;28;20215;-72
2022/04/02 00:10:39;;;;;;;20.97;15.80;;;0.80;99.90;;;;;;5064752;28;20279;-72
2022/04/02 00:13:04;;;;;;;16.00;14.43;;;0.80;99.90;;;;;;5053667;28;20176;-71
2022/04/02 00:15:30;;;;;;;20.37;16.53;;;0.90;99.90;;;;;;5053934;28;20203;-71
2022/04/02 00:17:56;;;;;;;19.20;15.30;;;0.90;99.90;;;;;;5054408;28;20255;-72
2022/04/02 00:20:21;;;;;;;18.57;14.40;;;0.90;99.90;;;;;;5073468;28;20654;-71
2022/04/02 00:25:32;;;;;;;19.10;14.60;;;0.90;99.90;;;;;;5073339;28;20214;-72
2022/04/02 00:27:58;;;;;;;21.73;15.43;;;0.90;99.90;;;;;;5058156;28;20184;-71
2022/04/02 00:30:23;;;;;;;15.37;13.77;;;0.90;99.90;;;;;;5082622;28;20196;-72
2022/04/02 00:32:49;;;;;;;17.80;14.57;;;0.90;99.90;;;;;;5084309;28;20213;-72
2022/04/02 00:35:15;;;;;;;19.00;13.37;;;0.80;99.90;;;;;;5078978;28;20206;-72
2022/04/02 00:37:41;;;;;;;17.63;13.57;;;0.80;99.90;;;;;;5088204;28;20176;-71
2022/04/02 00:40:07;;;;;;;17.40;13.40;;;0.80;99.90;;;;;;5088483;28;20266;-72
2022/04/02 00:42:33;;;;;;;20.43;13.70;;;0.80;99.90;;;;;;5070155;28;20613;-72
2022/04/02 00:44:59;;;;;;;18.43;13.07;;;0.70;99.90;;;;;;5053139;28;20254;-72
2022/04/02 00:47:24;;;;;;;20.43;12.93;;;0.70;99.90;;;;;;5059947;28;20653;-71
2022/04/02 00:49:54;;;;;;;18.27;12.10;;;0.80;99.90;;;;;;5077869;28;20182;-71
2022/04/02 00:52:21;;;;;;;20.30;12.83;;;0.70;99.90;;;;;;5078104;28;20179;-70
2022/04/02 00:54:49;;;;;;;21.30;12.70;;;0.70;99.90;;;;;;5072974;28;20167;-72
2022/04/02 00:57:16;;;;;;;24.37;13.03;;;0.70;99.90;;;;;;5072814;28;20187;-71
2022/04/02 00:59:41;;;;;;;14.73;13.23;;;0.80;99.90;;;;;;5052976;28;20212;-71
2022/04/02 01:02:07;;;;;;;17.03;12.57;;;0.70;99.90;;;;;;5066089;28;20229;-70
2022/04/02 01:04:32;;;;;;;16.10;11.60;;;0.80;99.90;;;;;;5072673;28;20176;-70
2022/04/02 01:06:59;;;;;;;19.00;11.80;;;0.80;99.90;;;;;;5060663;28;20207;-70
2022/04/02 01:09:25;;;;;;;18.70;12.13;;;0.90;99.90;;;;;;5062901;28;20187;-70
2022/04/02 01:11:52;;;;;;;14.73;11.60;;;0.90;99.90;;;;;;5072554;28;20203;-71
2022/04/02 01:14:18;;;;;;;11.43;10.23;;;0.90;99.90;;;;;;5072589;28;20168;-71
2022/04/02 01:16:44;;;;;;;13.20;10.37;;;0.90;99.90;;;;;;5066222;28;20589;-71
2022/04/02 01:19:10;;;;;;;12.00;10.40;;;1.00;99.90;;;;;;5064775;28;20212;-71
2022/04/02 01:21:36;;;;;;;16.43;11.23;;;1.00;99.90;;;;;;5067566;28;20183;-71
2022/04/02 01:24:03;;;;;;;15.40;10.57;;;0.90;99.90;;;;;;5076264;28;20320;-71
2022/04/02 01:26:29;;;;;;;16.20;11.07;;;0.90;99.90;;;;;;5071639;28;20230;-71
2022/04/02 01:28:59;;;;;;;13.47;9.20;;;0.90;99.90;;;;;;5072345;28;20172;-71
2022/04/02 01:31:25;;;;;;;12.63;8.90;;;1.00;99.90;;;;;;5072683;28;20175;-71
2022/04/02 01:33:52;;;;;;;16.47;9.17;;;0.90;99.90;;;;;;5073751;28;20179;-72
2022/04/02 01:36:19;;;;;;;13.20;10.30;;;0.90;99.90;;;;;;5070996;28;20686;-71
2022/04/02 01:38:45;;;;;;;11.07;9.80;;;1.00;99.90;;;;;;5071336;28;20199;-71
2022/04/02 01:41:12;;;;;;;17.17;9.33;;;1.00;99.90;;;;;;5070952;28;20272;-71
2022/04/02 01:43:37;;;;;;;13.17;9.10;;;1.00;99.90;;;;;;5069564;28;20638;-71
2022/04/02 01:46:03;;;;;;;12.23;9.97;;;0.80;99.90;;;;;;5070707;28;20240;-71
2022/04/02 01:48:30;;;;;;;12.07;8.93;;;0.70;99.90;;;;;;5071483;28;20190;-71
2022/04/02 01:50:55;;;;;;;13.83;8.90;;;0.80;99.90;;;;;;5069829;28;20237;-72
2022/04/02 01:53:22;;;;;;;11.20;9.30;;;0.80;99.90;;;;;;5071812;28;20583;-70
2022/04/02 01:55:48;;;;;;;17.90;9.70;;;0.80;99.90;;;;;;5071771;28;20192;-71
2022/04/02 01:58:14;;;;;;;14.90;9.70;;;0.80;99.90;;;;;;5068666;28;20677;-72
2022/04/02 02:00:40;;;;;;;12.90;9.40;;;0.70;99.90;;;;;;5071154;28;20254;-72
2022/04/02 02:03:09;;;;;;;11.23;8.97;;;0.60;99.90;;;;;;5071100;28;20197;-72
2022/04/02 02:05:35;;;;;;;13.50;9.60;;;0.60;99.90;;;;;;5069738;28;20286;-71
2022/04/02 02:08:02;;;;;;;12.87;9.73;;;0.60;99.90;;;;;;5051355;28;20169;-71
2022/04/02 02:10:28;;;;;;;12.97;8.50;;;0.60;99.90;;;;;;5067031;28;20176;-71
2022/04/02 02:12:54;;;;;;;13.87;9.17;;;0.50;99.90;;;;;;5054266;28;20586;-71
2022/04/02 02:15:20;;;;;;;12.13;8.47;;;0.60;99.90;;;;;;5056958;28;20204;-71
2022/04/02 02:17:50;;;;;;;10.77;8.73;;;0.60;99.90;;;;;;5051061;28;20168;-71
2022/04/02 02:20:17;;;;;;;9.77;8.37;;;0.60;99.90;;;;;;5052119;28;20176;-72
2022/04/02 02:22:44;;;;;;;9.50;8.43;;;0.60;99.90;;;;;;5052269;28;20180;-72
2022/04/02 02:25:11;;;;;;;9.93;8.77;;;0.50;99.90;;;;;;5052077;28;20258;-72
2022/04/02 02:27:38;;;;;;;12.57;9.10;;;0.50;99.90;;;;;;5062475;28;20190;-72
2022/04/02 02:30:07;;;;;;;11.37;8.27;;;0.50;99.90;;;;;;5066495;28;20276;-71
2022/04/02 02:32:36;;;;;;;14.60;9.07;;;0.50;99.90;;;;;;5051595;28;20271;-72
2022/04/02 02:37:50;;;;;;;11.77;9.70;;;0.60;99.90;;;;;;5072836;28;20250;-72
2022/04/02 02:40:16;;;;;;;11.93;10.53;;;0.60;99.90;;;;;;5060790;28;20207;-72
2022/04/02 02:42:43;;;;;;;17.33;10.57;;;0.60;99.90;;;;;;5056037;28;20554;-72
2022/04/02 02:45:09;;;;;;;13.30;10.20;;;0.60;99.90;;;;;;5071713;28;20190;-70
2022/04/02 02:47:35;;;;;;;11.77;10.53;;;0.60;99.90;;;;;;5062721;28;20176;-70
2022/04/02 02:50:00;;;;;;;12.23;10.40;;;0.60;99.90;;;;;;5051170;28;20203;-70
2022/04/02 02:52:27;;;;;;;19.40;9.73;;;0.60;99.90;;;;;;5050739;28;20176;-71
2022/04/02 02:54:53;;;;;;;17.23;10.63;;;0.60;99.90;;;;;;5049531;28;21035;-70
2022/04/02 02:57:19;;;;;;;12.13;10.10;;;0.50;99.90;;;;;;5048220;28;20200;-71
2022/04/02 02:59:45;;;;;;;15.33;10.50;;;0.60;99.90;;;;;;5064682;28;20633;-70
2022/04/02 03:02:11;;;;;;;13.57;10.07;;;0.60;99.90;;;;;;5072174;28;20267;-70
2022/04/02 03:04:37;;;;;;;11.07;10.03;;;0.60;99.90;;;;;;5073820;28;20206;-71
2022/04/02 03:07:03;;;;;;;13.00;10.07;;;0.50;99.90;;;;;;5066131;28;20600;-70
2022/04/02 03:09:29;;;;;;;18.60;11.03;;;0.50;99.90;;;;;;5054422;28;20251;-70
2022/04/02 03:11:55;;;;;;;15.03;10.20;;;0.50;99.90;;;;;;5084542;28;20277;-71
2022/04/02 03:14:21;;;;;;;11.97;9.93;;;0.60;99.90;;;;;;5094500;28;20685;-71
2022/04/02 03:16:47;;;;;;;10.90;9.80;;;0.60;99.90;;;;;;5077529;28;20195;-71
2022/04/02 03:19:13;;;;;;;15.50;10.13;;;0.50;99.90;;;;;;5086696;28;20202;-71
2022/04/02 03:21:38;;;;;;;16.50;11.10;;;0.60;99.90;;;;;;5075432;28;20182;-72
2022/04/02 03:24:04;;;;;;;11.33;9.77;;;0.50;99.90;;;;;;5074767;28;20245;-72
2022/04/02 03:26:30;;;;;;;14.07;10.27;;;0.50;99.90;;;;;;5068445;28;20302;-70
2022/04/02 03:28:56;;;;;;;18.87;10.97;;;0.50;99.90;;;;;;5086242;28;20178;-70
2022/04/02 03:31:22;;;;;;;15.87;10.40;;;0.40;99.90;;;;;;5093782;28;20226;-71
2022/04/02 03:33:48;;;;;;;12.47;10.20;;;0.40;99.90;;;;;;5094598;28;20170;-72
2022/04/02 03:36:14;;;;;;;19.67;11.73;;;0.30;99.90;;;;;;5053691;28;20214;-71
2022/04/02 03:38:40;;;;;;;17.70;11.23;;;0.40;99.90;;;;;;5081679;28;20198;-71
2022/04/02 03:41:06;;;;;;;14.17;11.37;;;0.50;99.90;;;;;;5089394;28;20367;-71
2022/04/02 03:43:32;;;;;;;18.07;11.00;;;0.50;99.90;;;;;;5082804;28;20202;-71
2022/04/02 03:47:08;;;;;;;11.80;10.63;;;0.50;99.90;;;;;;5073721;28;20679;-71
2022/04/02 03:48:44;;;;;;;15.63;11.53;;;0.60;99.90;;;;;;5073642;28;20278;-71
2022/04/02 03:51:10;;;;;;;13.50;11.10;;;0.50;99.90;;;;;;5073590;28;20183;-71
2022/04/02 03:53:35;;;;;;;13.30;11.77;;;0.50;99.90;;;;;;5068493;28;20207;-71
2022/04/02 03:56:02;;;;;;;17.43;12.53;;;0.50;99.90;;;;;;5053789;28;20542;-71
2022/04/02 03:58:28;;;;;;;13.07;11.63;;;0.40;99.90;;;;;;5062932;28;20337;-71
2022/04/02 04:00:54;;;;;;;13.10;11.70;;;0.50;99.90;;;;;;5094105;28;20181;-70
2022/04/02 04:03:20;;;;;;;22.20;13.37;;;0.50;99.90;;;;;;5093841;28;20254;-71
2022/04/02 04:05:46;;;;;;;16.07;12.47;;;0.60;99.90;;;;;;5080756;28;20635;-71
2022/04/02 04:08:12;;;;;;;25.50;12.13;;;0.50;99.90;;;;;;5056414;28;20176;-71
2022/04/02 04:10:38;;;;;;;14.73;11.13;;;0.50;99.90;;;;;;5081670;28;20182;-71
2022/04/02 04:13:03;;;;;;;21.33;11.33;;;0.50;99.90;;;;;;5086882;28;20556;-71
2022/04/02 04:15:29;;;;;;;16.97;11.47;;;0.50;99.90;;;;;;5073279;28;20210;-71
2022/04/02 04:17:56;;;;;;;17.97;12.23;;;0.40;99.90;;;;;;5069555;28;20179;-71
2022/04/02 04:20:22;;;;;;;18.47;10.50;;;0.40;99.90;;;;;;5073684;28;20168;-71
2022/04/02 04:22:47;;;;;;;14.13;10.70;;;0.50;99.90;;;;;;5072505;28;20171;-70
2022/04/02 04:25:13;;;;;;;12.33;10.60;;;0.50;99.90;;;;;;5071908;28;21093;-71
2022/04/02 04:27:39;;;;;;;16.60;10.73;;;0.50;99.90;;;;;;5071805;28;20208;-71
2022/04/02 04:30:06;;;;;;;14.50;10.93;;;0.40;99.90;;;;;;5072851;28;20262;-71
2022/04/02 04:32:33;;;;;;;19.43;10.83;;;0.40;99.90;;;;;;5071657;28;20241;-71
2022/04/02 04:34:58;;;;;;;12.87;10.73;;;0.40;99.90;;;;;;5068696;28;20176;-71
2022/04/02 04:37:24;;;;;;;16.07;11.17;;;0.50;99.90;;;;;;5064853;28;20236;-71
2022/04/02 04:39:50;;;;;;;27.23;11.53;;;0.50;99.90;;;;;;5069257;28;20197;-71
2022/04/02 04:42:16;;;;;;;10.47;9.50;;;0.50;99.90;;;;;;5071766;28;20176;-71
2022/04/02 04:44:43;;;;;;;12.60;10.30;;;0.50;99.90;;;;;;5071587;28;20233;-71
2022/04/02 04:47:09;;;;;;;13.17;8.83;;;0.50;99.90;;;;;;5072358;28;20191;-71
2022/04/02 04:49:35;;;;;;;10.30;9.20;;;0.40;99.90;;;;;;5073045;28;20239;-72
2022/04/02 04:52:03;;;;;;;12.33;9.53;;;0.40;99.90;;;;;;5065334;28;20610;-72
2022/04/02 04:54:29;;;;;;;12.00;9.73;;;0.40;99.90;;;;;;5071286;28;20260;-72
2022/04/02 04:56:55;;;;;;;9.73;8.87;;;0.40;99.90;;;;;;5072838;28;20207;-73
2022/04/02 04:59:20;;;;;;;11.13;9.50;;;0.50;99.90;;;;;;5073265;28;20210;-73
2022/04/02 05:01:47;;;;;;;10.60;9.30;;;0.50;99.90;;;;;;5073317;28;20221;-73
2022/04/02 05:04:13;;;;;;;11.87;9.20;;;0.60;99.90;;;;;;5070704;28;20174;-73
2022/04/02 05:06:39;;;;;;;9.33;8.27;;;0.60;99.90;;;;;;5073747;28;20233;-72
2022/04/02 05:09:06;;;;;;;15.80;9.20;;;0.60;99.90;;;;;;5073597;28;20172;-72
2022/04/02 05:11:32;;;;;;;10.70;9.00;;;0.60;99.90;;;;;;5072917;28;20247;-73
2022/04/02 05:13:57;;;;;;;18.33;8.40;;;0.50;99.90;;;;;;5071837;28;20202;-72
2022/04/02 05:16:23;;;;;;;18.00;9.60;;;0.40;99.90;;;;;;5068419;28;20670;-72
2022/04/02 05:18:50;;;;;;;13.73;9.30;;;0.40;99.90;;;;;;5071355;28;20205;-72
2022/04/02 05:21:16;;;;;;;14.40;8.30;;;0.40;99.90;;;;;;5064453;28;20200;-72
2022/04/02 05:23:42;;;;;;;12.67;8.40;;;0.40;99.90;;;;;;5071550;28;20506;-71
2022/04/02 05:26:08;;;;;;;11.90;8.77;;;0.40;99.90;;;;;;5071041;28;20666;-72
2022/04/02 05:28:33;;;;;;;9.07;8.13;;;0.50;99.90;;;;;;5070681;28;20190;-71
2022/04/02 05:30:59;;;;;;;10.03;7.60;;;0.50;99.90;;;;;;5071492;28;20733;-71
2022/04/02 05:33:25;;;;;;;13.57;9.97;;;0.50;99.90;;;;;;5072194;28;20167;-71
2022/04/02 05:35:50;;;;;;;15.37;9.90;;;0.40;99.90;;;;;;5070512;28;20203;-72
2022/04/02 05:38:16;;;;;;;13.67;9.03;;;0.40;99.90;;;;;;5070216;28;20233;-75
2022/04/02 05:40:42;;;;;;;13.37;9.07;;;0.40;99.90;;;;;;5072517;28;20263;-73
2022/04/02 05:43:08;;;;;;;12.10;9.17;;;0.50;99.90;;;;;;5073218;28;20174;-73
2022/04/02 05:45:34;;;;;;;11.90;8.90;;;0.50;99.90;;;;;;5073676;28;20191;-73
2022/04/02 05:48:00;;;;;;;11.70;8.83;;;0.50;99.90;;;;;;5058034;28;20650;-72
2022/04/02 05:50:26;;;;;;;13.27;9.60;;;0.50;99.90;;;;;;5071680;28;20217;-72
2022/04/02 05:52:52;;;;;;;18.13;10.17;;;0.50;99.90;;;;;;5071695;28;20175;-71
2022/04/02 05:55:19;;;;;;;10.40;9.17;;;0.60;99.90;;;;;;5071664;28;20183;-72
2022/04/02 05:57:45;;;;;;;14.13;9.73;;;0.60;99.90;;;;;;5064153;28;20194;-72
2022/04/02 06:00:13;;;;;;;11.87;9.57;;;0.70;99.90;;;;;;5071819;28;20195;-72
2022/04/02 06:02:40;;;;;;;11.53;10.13;;;0.70;99.90;;;;;;5071418;28;20178;-71
2022/04/02 06:05:07;;;;;;;17.37;11.70;;;0.70;99.90;;;;;;5067783;28;20179;-72
2022/04/02 06:07:33;;;;;;;14.60;10.50;;;0.70;99.90;;;;;;5071377;28;20163;-71
2022/04/02 06:10:02;;;;;;;14.87;10.40;;;0.70;99.90;;;;;;5071352;28;20183;-71
2022/04/02 06:12:28;;;;;;;13.70;10.70;;;0.70;99.90;;;;;;5086279;28;20186;-70
2022/04/02 06:14:53;;;;;;;13.00;10.90;;;0.60;99.90;;;;;;5059128;28;20588;-70
2022/04/02 06:17:19;;;;;;;12.00;10.80;;;0.80;99.90;;;;;;5071506;28;20199;-70
2022/04/02 06:19:44;;;;;;;12.10;10.10;;;0.90;99.90;;;;;;5071426;28;20202;-72
2022/04/02 06:22:10;;;;;;;13.37;10.17;;;1.00;99.90;;;;;;5071208;28;20220;-72
2022/04/02 06:24:36;;;;;;;14.10;9.77;;;0.90;99.90;;;;;;5070880;28;20211;-70
2022/04/02 06:27:02;;;;;;;13.67;9.87;;;1.00;99.90;;;;;;5075293;28;20223;-71
2022/04/02 06:29:28;;;;;;;11.07;9.27;;;1.20;99.90;;;;;;5079334;28;20291;-71
2022/04/02 06:31:53;;;;;;;12.70;10.40;;;1.10;99.90;;;;;;5059001;28;20192;-71
2022/04/02 06:34:19;;;;;;;15.47;10.60;;;1.20;99.90;;;;;;5066289;28;20319;-71
2022/04/02 06:36:45;;;;;;;14.30;10.57;;;1.20;99.90;;;;;;5070081;28;20210;-71
2022/04/02 06:39:12;;;;;;;11.27;10.07;;;1.30;99.90;;;;;;5065110;28;20221;-71
2022/04/02 06:41:38;;;;;;;14.60;9.93;;;1.30;99.90;;;;;;5073924;28;20265;-72
2022/04/02 06:44:04;;;;;;;12.43;9.97;;;1.30;99.90;;;;;;5069952;28;20211;-72
2022/04/02 06:46:30;;;;;;;10.30;9.30;;;1.30;99.90;;;;;;5064854;28;20202;-73
2022/04/02 06:48:56;;;;;;;14.53;10.17;;;1.30;99.90;;;;;;5064982;28;20179;-71
2022/04/02 06:51:21;;;;;;;13.10;10.73;;;1.30;99.90;;;;;;5071684;28;20566;-72
2022/04/02 06:53:47;;;;;;;12.53;10.90;;;1.30;99.90;;;;;;5067169;28;20181;-70
2022/04/02 06:56:12;;;;;;;11.17;9.93;;;1.30;99.90;;;;;;5064548;28;20244;-71
2022/04/02 06:58:41;;;;;;;11.20;10.07;;;1.30;99.90;;;;;;5061668;28;20199;-72
2022/04/02 07:01:07;;;;;;;14.87;10.87;;;1.40;99.90;;;;;;5068327;28;20543;-70
2022/04/02 07:03:34;;;;;;;14.47;9.57;;;1.50;99.90;;;;;;5070819;28;20178;-71
2022/04/02 07:06:00;;;;;;;12.70;10.67;;;1.50;99.90;;;;;;5067597;28;20349;-72
2022/04/02 07:08:25;;;;;;;13.10;10.97;;;1.40;99.90;;;;;;5069503;28;20254;-73
2022/04/02 07:10:51;;;;;;;12.00;10.20;;;1.40;99.90;;;;;;5071085;28;20252;-71
2022/04/02 07:13:16;;;;;;;11.57;10.37;;;1.50;99.90;;;;;;5070056;28;20187;-71
2022/04/02 07:15:42;;;;;;;12.53;9.70;;;1.50;99.90;;;;;;5070932;28;20201;-71
2022/04/02 07:18:09;;;;;;;12.10;10.10;;;1.60;99.90;;;;;;5070876;28;20171;-71
2022/04/02 07:20:37;;;;;;;17.43;9.83;;;1.50;99.90;;;;;;5071154;28;20178;-71
2022/04/02 07:23:04;;;;;;;12.20;10.00;;;1.50;99.90;;;;;;5060891;28;20701;-71
2022/04/02 07:25:30;;;;;;;10.60;9.20;;;1.60;99.90;;;;;;5070203;28;20203;-71
2022/04/02 07:27:57;;;;;;;11.90;9.27;;;1.60;99.90;;;;;;5071199;28;20265;-71
2022/04/02 07:30:26;;;;;;;11.30;9.67;;;1.60;99.90;;;;;;5067806;28;20181;-72
2022/04/02 07:32:52;;;;;;;11.20;8.83;;;1.60;99.90;;;;;;5067790;28;20183;-71
2022/04/02 07:35:18;;;;;;;13.20;9.37;;;1.60;99.90;;;;;;5069932;28;20199;-71
2022/04/02 07:38:16;;;;;;;11.77;9.67;;;1.60;99.90;;;;;;5071263;28;20172;-72
2022/04/02 07:41:10;;;;;;;12.40;8.73;;;1.70;99.90;;;;;;5051153;28;20180;-72
2022/04/02 07:44:03;;;;;;;12.43;9.17;;;1.70;99.90;;;;;;5072053;28;20176;-73
2022/04/02 07:46:30;;;;;;;9.63;8.27;;;2.00;99.90;;;;;;5076907;28;20199;-72
2022/04/02 07:48:57;;;;;;;11.57;8.83;;;2.20;99.90;;;;;;5067715;28;20241;-72
2022/04/02 07:51:28;;;;;;;10.10;9.17;;;2.20;99.90;;;;;;5080701;28;20672;-72
2022/04/02 07:53:56;;;;;;;12.23;9.17;;;2.40;99.90;;;;;;5085478;28;20191;-73
2022/04/02 07:56:35;;;;;;;10.23;8.53;;;2.40;99.90;;;;;;5054140;28;20261;-72
2022/04/02 07:59:11;;;;;;;17.33;10.80;;;2.50;99.90;;;;;;5086926;28;20198;-73
2022/04/02 08:01:36;;;;;;;10.83;9.73;;;2.60;99.90;;;;;;5082062;28;20258;-73
2022/04/02 08:04:06;;;;;;;12.70;9.87;;;2.70;99.90;;;;;;5076997;28;20266;-72
2022/04/02 08:06:34;;;;;;;11.40;9.47;;;2.80;99.90;;;;;;5075950;28;20191;-72
2022/04/02 08:09:00;;;;;;;11.37;8.83;;;2.90;99.90;;;;;;5074841;28;20202;-72
2022/04/02 08:11:26;;;;;;;11.37;9.13;;;3.00;99.90;;;;;;5066205;28;20187;-72
2022/04/02 08:13:52;;;;;;;13.37;8.73;;;3.20;99.90;;;;;;5069149;28;20176;-71
2022/04/02 08:16:19;;;;;;;8.83;7.97;;;3.30;99.90;;;;;;5070261;28;20245;-71
2022/04/02 08:18:47;;;;;;;10.50;8.27;;;3.20;99.90;;;;;;5065698;28;20603;-72
2022/04/02 08:21:13;;;;;;;13.13;8.67;;;3.20;99.90;;;;;;5065503;28;20544;-71
2022/04/02 08:23:39;;;;;;;10.70;9.20;;;3.20;99.90;;;;;;5068034;28;20261;-72
2022/04/02 08:26:26;;;;;;;11.37;9.23;;;3.20;99.90;;;;;;5064731;28;20694;-71
2022/04/02 08:29:30;;;;;;;9.93;8.87;;;3.50;99.90;;;;;;5071108;28;20282;-71
2022/04/02 08:32:05;;;;;;;8.73;7.83;;;3.60;99.90;;;;;;5065434;28;20171;-72
2022/04/02 08:34:58;;;;;;;10.57;9.20;;;3.90;99.90;;;;;;5068229;28;20207;-70
2022/04/02 08:38:03;;;;;;;10.17;9.17;;;4.20;99.90;;;;;;5072741;28;20175;-71
2022/04/02 08:41:10;;;;;;;9.93;8.93;;;4.30;99.90;;;;;;5064349;28;20257;-71
2022/04/02 08:43:59;;;;;;;10.37;8.83;;;4.30;99.90;;;;;;5054648;28;20200;-72
2022/04/02 08:46:34;;;;;;;8.77;7.97;;;4.70;99.90;;;;;;5064558;28;20337;-71
2022/04/02 08:49:21;;;;;;;10.47;8.57;;;4.90;99.90;;;;;;5069102;28;20174;-72
2022/04/02 08:51:57;;;;;;;8.53;7.73;;;5.30;99.90;;;;;;5056356;28;20184;-70
2022/04/02 08:54:26;;;;;;;12.17;7.17;;;5.20;99.90;;;;;;5061644;28;20180;-69
2022/04/02 08:57:21;;;;;;;8.37;7.57;;;5.10;99.90;;;;;;5065022;28;20581;-70
2022/04/02 08:59:57;;;;;;;10.00;8.13;;;5.10;99.90;;;;;;5063662;28;20210;-70
2022/04/02 09:02:58;;;;;;;9.77;6.90;;;5.40;99.90;;;;;;5062033;28;20552;-71
2022/04/02 09:05:35;;;;;;;9.07;7.13;;;5.50;99.90;;;;;;5064877;28;20198;-70
2022/04/02 09:08:12;;;;;;;8.57;7.23;;;5.20;99.90;;;;;;5064849;28;20206;-70
2022/04/02 09:11:35;;;;;;;8.00;6.63;;;4.90;99.90;;;;;;5069601;28;20661;-71
2022/04/02 09:14:30;;;;;;;10.23;7.83;;;4.70;99.90;;;;;;5009307;28;20312;-71
2022/04/02 09:17:05;;;;;;;8.07;7.27;;;4.50;99.90;;;;;;5004171;28;20216;-70
2022/04/02 09:20:08;;;;;;;8.17;7.47;;;4.60;99.90;;;;;;5040074;28;20221;-71
2022/04/02 09:22:43;;;;;;;8.87;7.97;;;4.80;99.90;;;;;;5069022;28;20203;-70
2022/04/02 09:25:51;;;;;;;7.87;7.17;;;4.70;99.90;;;;;;5068262;28;20183;-70
2022/04/02 09:28:26;;;;;;;8.40;7.60;;;4.50;99.90;;;;;;5051066;28;20201;-69
2022/04/02 09:30:54;;;;;;;7.60;7.00;;;4.20;99.90;;;;;;5070774;28;20175;-69
2022/04/02 09:33:19;;;;;;;11.43;8.37;;;4.00;99.90;;;;;;5070529;28;20210;-70
2022/04/02 09:35:48;;;;;;;8.57;7.70;;;3.70;99.90;;;;;;5067008;28;20191;-69
2022/04/02 09:38:35;;;;;;;7.80;7.20;;;3.70;99.90;;;;;;5058592;28;20228;-69
2022/04/02 09:41:14;;;;;;;7.60;7.00;;;3.30;99.90;;;;;;5068834;28;20167;-69
2022/04/02 09:43:59;;;;;;;6.93;6.20;;;3.00;99.90;;;;;;5071401;28;20642;-68
2022/04/02 09:46:59;;;;;;;8.80;6.80;;;3.00;99.90;;;;;;5086674;28;20268;-69
2022/04/02 09:49:57;;;;;;;6.00;5.47;;;3.00;99.90;;;;;;5069528;28;20221;-70
2022/04/02 09:52:25;;;;;;;7.00;5.33;;;2.90;99.90;;;;;;5063213;28;20505;-69
2022/04/02 09:55:13;;;;;;;5.93;5.33;;;3.00;99.90;;;;;;5071659;28;20187;-69
2022/04/02 09:57:45;;;;;;;5.63;5.13;;;3.10;99.90;;;;;;5071155;28;20204;-69
2022/04/02 10:00:16;;;;;;;5.30;4.80;;;3.30;99.90;;;;;;5069794;28;20316;-70
2022/04/02 10:03:03;;;;;;;6.23;5.63;;;3.30;99.90;;;;;;5069338;28;20185;-68
2022/04/02 10:05:45;;;;;;;5.77;5.27;;;3.30;99.90;;;;;;5064227;28;20199;-68
2022/04/02 10:08:16;;;;;;;5.07;4.67;;;3.30;99.90;;;;;;5071723;28;20179;-69
2022/04/02 10:10:43;;;;;;;6.47;4.90;;;3.30;99.90;;;;;;5069966;28;20530;-68
2022/04/02 10:13:09;;;;;;;5.83;5.33;;;3.30;99.90;;;;;;5075173;28;20250;-69
2022/04/02 10:15:41;;;;;;;5.90;5.40;;;3.20;99.90;;;;;;5089644;28;20226;-69
2022/04/02 10:18:10;;;;;;;6.07;5.43;;;3.10;99.90;;;;;;5076151;28;20535;-68
2022/04/02 10:20:37;;;;;;;5.40;5.00;;;3.10;99.90;;;;;;5065465;28;20317;-69
2022/04/02 10:23:21;;;;;;;4.90;4.50;;;3.00;99.90;;;;;;5064691;28;20199;-70
2022/04/02 10:26:09;;;;;;;5.50;5.10;;;3.10;99.90;;;;;;5062523;28;20213;-69
2022/04/02 10:29:02;;;;;;;6.57;5.40;;;3.30;99.90;;;;;;5059165;28;20635;-68
2022/04/02 10:31:49;;;;;;;6.10;5.43;;;3.40;99.90;;;;;;5067766;28;20660;-68
2022/04/02 10:34:34;;;;;;;5.90;5.37;;;3.60;99.90;;;;;;5071938;28;20174;-70
2022/04/02 10:37:12;;;;;;;5.43;5.00;;;4.00;99.90;;;;;;5061964;28;20200;-69
2022/04/02 10:39:57;;;;;;;5.50;4.87;;;4.30;99.90;;;;;;5054262;28;20260;-70
2022/04/02 10:42:33;;;;;;;7.17;5.70;;;4.40;99.90;;;;;;5072269;28;20170;-69
2022/04/02 10:45:03;;;;;;;6.17;5.67;;;4.50;99.90;;;;;;5069985;28;20182;-69
2022/04/02 10:47:30;;;;;;;5.73;5.13;;;4.50;99.90;;;;;;5060527;28;20171;-69
2022/04/02 10:50:06;;;;;;;5.77;5.33;;;4.50;99.90;;;;;;5051544;28;20168;-69
2022/04/02 10:52:34;;;;;;;6.13;5.63;;;4.50;99.90;;;;;;5061778;28;20243;-69
2022/04/02 10:55:00;;;;;;;5.53;5.00;;;4.40;99.90;;;;;;5059290;28;20509;-71
2022/04/02 10:57:32;;;;;;;6.03;5.43;;;4.10;99.90;;;;;;5059337;28;20598;-70
2022/04/02 11:00:09;;;;;;;5.37;4.97;;;4.00;99.90;;;;;;5069355;28;20241;-70
2022/04/02 11:02:46;;;;;;;5.97;5.40;;;4.10;99.90;;;;;;5071116;28;20179;-70
2022/04/02 11:05:16;;;;;;;6.47;5.90;;;4.20;99.90;;;;;;5065479;28;20285;-69
2022/04/02 11:07:44;;;;;;;6.73;6.10;;;4.10;99.90;;;;;;5067577;28;20220;-72
2022/04/02 11:10:20;;;;;;;7.03;6.20;;;3.90;99.90;;;;;;5071912;28;20268;-68
2022/04/02 11:12:48;;;;;;;6.73;6.23;;;3.40;99.90;;;;;;5071328;28;20167;-67
2022/04/02 11:15:23;;;;;;;7.37;6.60;;;3.10;99.90;;;;;;5070870;28;20262;-67
2022/04/02 11:17:49;;;;;;;9.07;7.10;;;3.00;99.90;;;;;;5066146;28;20311;-69
2022/04/02 11:20:18;;;;;;;6.67;6.07;;;3.00;99.90;;;;;;5062170;28;20202;-70
2022/04/02 11:22:57;;;;;;;6.73;6.07;;;3.10;99.90;;;;;;5076205;28;20175;-68
2022/04/02 11:25:23;;;;;;;6.63;6.03;;;3.50;99.90;;;;;;5069557;28;20200;-70
2022/04/02 11:27:50;;;;;;;7.73;5.60;;;3.90;99.90;;;;;;5071001;28;20231;-67
2022/04/02 11:30:18;;;;;;;6.13;5.63;;;4.30;99.90;;;;;;5069206;28;20175;-68
2022/04/02 11:32:45;;;;;;;8.17;5.80;;;4.50;99.90;;;;;;5067879;28;20180;-70
2022/04/02 11:35:17;;;;;;;6.03;5.43;;;4.10;99.90;;;;;;5064875;28;20282;-69
2022/04/02 11:38:03;;;;;;;5.60;5.10;;;3.60;99.90;;;;;;5065161;28;20175;-68
2022/04/02 11:40:31;;;;;;;5.80;5.40;;;3.40;99.90;;;;;;5066534;28;20848;-68
2022/04/02 11:43:01;;;;;;;6.60;5.53;;;3.20;99.90;;;;;;5060386;28;20653;-70
2022/04/02 11:45:28;;;;;;;6.23;5.70;;;3.30;99.90;;;;;;5070918;28;20187;-68
2022/04/02 11:48:08;;;;;;;8.57;5.63;;;3.40;99.90;;;;;;5080622;28;20219;-70
2022/04/02 11:50:36;;;;;;;5.13;4.73;;;3.50;99.90;;;;;;5059615;28;20197;-69
2022/04/02 11:53:02;;;;;;;6.10;5.60;;;3.50;99.90;;;;;;5070773;28;20199;-68
2022/04/02 11:55:27;;;;;;;6.17;5.67;;;4.00;99.90;;;;;;5067836;28;20241;-69
2022/04/02 11:58:03;;;;;;;7.60;4.70;;;4.40;99.90;;;;;;5072274;28;20194;-67
2022/04/02 12:00:33;;;;;;;6.53;5.50;;;4.40;99.90;;;;;;5069050;28;20259;-68
2022/04/02 12:02:59;;;;;;;4.97;4.47;;;4.60;99.90;;;;;;5064670;28;20355;-69
2022/04/02 12:05:36;;;;;;;6.40;5.13;;;4.50;99.90;;;;;;5062879;28;20282;-67
2022/04/02 12:08:02;;;;;;;5.87;4.80;;;4.40;99.90;;;;;;5063710;28;20222;-69
2022/04/02 12:10:28;;;;;;;6.17;4.80;;;4.10;99.90;;;;;;5068264;28;20184;-69
2022/04/02 12:12:58;;;;;;;6.00;5.50;;;3.70;99.90;;;;;;5068148;28;20224;-67
2022/04/02 12:15:25;;;;;;;7.50;5.27;;;3.50;99.90;;;;;;5082621;28;20195;-67
2022/04/02 12:17:53;;;;;;;7.90;6.13;;;3.30;99.90;;;;;;5070909;28;20175;-67
2022/04/02 12:20:33;;;;;;;5.63;5.23;;;3.00;99.90;;;;;;5066420;28;20199;-68
2022/04/02 12:23:12;;;;;;;6.53;5.93;;;2.80;99.90;;;;;;5063473;28;20179;-68
2022/04/02 12:25:47;;;;;;;6.30;5.80;;;2.80;99.90;;;;;;5067608;28;20214;-67
2022/04/02 12:28:17;;;;;;;6.87;6.27;;;3.00;99.90;;;;;;5074869;28;20487;-69
2022/04/02 12:30:48;;;;;;;5.23;4.70;;;3.40;99.90;;;;;;5071148;28;20562;-70
2022/04/02 12:33:19;;;;;;;8.87;6.33;;;3.80;99.90;;;;;;5072652;28;20221;-69
2022/04/02 12:35:54;;;;;;;5.17;4.77;;;4.50;99.90;;;;;;5070860;28;20191;-69
2022/04/02 12:38:31;;;;;;;5.40;5.00;;;5.00;99.90;;;;;;5067786;28;20170;-69
2022/04/02 12:40:58;;;;;;;5.80;5.00;;;5.00;99.90;;;;;;5071070;28;20225;-69
2022/04/02 12:43:38;;;;;;;5.30;4.83;;;5.00;99.90;;;;;;5076639;28;20170;-69
2022/04/02 12:46:04;;;;;;;6.03;5.20;;;5.00;99.90;;;;;;5074565;28;20252;-72
2022/04/02 12:48:43;;;;;;;5.37;4.87;;;5.00;99.90;;;;;;5068174;28;20199;-69
2022/04/02 12:51:19;;;;;;;5.83;5.23;;;4.80;99.90;;;;;;5067805;28;20553;-70
2022/04/02 12:53:58;;;;;;;5.60;5.10;;;4.80;99.90;;;;;;5073072;28;20183;-69
2022/04/02 12:56:27;;;;;;;5.80;5.20;;;4.60;99.90;;;;;;5073318;28;20194;-70
2022/04/02 12:58:54;;;;;;;5.23;4.83;;;4.60;99.90;;;;;;5073052;28;21731;-68
2022/04/02 13:01:22;;;;;;;5.70;5.30;;;4.50;99.90;;;;;;5077940;28;20626;-70
2022/04/02 13:04:07;;;;;;;8.30;6.43;;;4.40;99.90;;;;;;5080546;28;20183;-69
2022/04/02 13:06:42;;;;;;;6.27;5.57;;;4.30;99.90;;;;;;5058357;28;20206;-69
2022/04/02 13:09:15;;;;;;;7.87;6.93;;;3.90;99.90;;;;;;5062319;28;20175;-72